Time;durP1;ratioP1;P1;durP2;ratioP2;P2;SDS_P1;SDS_P2;PMS_P1;PMS_P2;Temp;Humidity;BMP_temperature;BMP_pressure;BME280_temperature;BME280_humidity;BME280_pressure;Samples;Min_cycle;Max_cycle;Signal;HPM_P1;HPM_P2
2023/10/29 00:00:53;;;;;;;10.32;7.40;;;10.80;99.90;;;;;;2054443;28;20235;-77
2023/10/29 00:01:53;;;;;;;10.02;7.57;;;10.80;99.90;;;;;;2056418;28;20101;-75
2023/10/29 00:02:54;;;;;;;10.35;7.15;;;10.80;99.90;;;;;;2061405;28;20045;-77
2023/10/29 00:03:55;;;;;;;11.98;7.50;;;10.80;99.90;;;;;;2050562;28;20154;-75
2023/10/29 00:04:56;;;;;;;12.55;7.70;;;10.70;99.90;;;;;;2047832;28;20030;-76
2023/10/29 00:05:56;;;;;;;10.57;7.47;;;10.70;99.90;;;;;;2052310;28;20114;-77
2023/10/29 00:06:57;;;;;;;12.95;8.05;;;10.70;99.90;;;;;;2057106;28;20046;-75
2023/10/29 00:07:57;;;;;;;12.65;8.48;;;10.70;99.90;;;;;;2062219;28;20023;-77
2023/10/29 00:08:58;;;;;;;12.27;8.45;;;10.70;99.90;;;;;;2050266;28;20050;-76
2023/10/29 00:09:58;;;;;;;11.40;8.32;;;10.70;99.90;;;;;;2041662;28;20042;-76
2023/10/29 00:10:59;;;;;;;10.57;7.78;;;10.70;99.90;;;;;;2056363;28;20145;-75
2023/10/29 00:12:00;;;;;;;14.02;7.68;;;10.70;99.90;;;;;;2054990;28;20386;-76
2023/10/29 00:13:02;;;;;;;9.68;7.68;;;10.70;99.90;;;;;;2056277;28;20053;-75
2023/10/29 00:14:02;;;;;;;11.20;7.80;;;10.70;99.90;;;;;;2061325;28;20109;-76
2023/10/29 00:15:05;;;;;;;12.65;8.18;;;10.70;99.90;;;;;;2063392;28;20085;-76
2023/10/29 00:16:05;;;;;;;11.73;8.20;;;10.70;99.90;;;;;;2060210;28;20026;-76
2023/10/29 00:17:06;;;;;;;10.80;7.43;;;10.70;99.90;;;;;;2056963;28;20916;-76
2023/10/29 00:18:12;;;;;;;11.02;7.90;;;10.70;99.90;;;;;;2063300;28;20018;-74
2023/10/29 00:19:13;;;;;;;11.48;8.30;;;10.70;99.90;;;;;;2063090;28;20026;-76
2023/10/29 00:20:13;;;;;;;12.18;8.30;;;10.70;99.90;;;;;;2060186;28;20068;-76
2023/10/29 00:21:14;;;;;;;13.52;8.93;;;10.70;99.90;;;;;;2055570;28;20027;-75
2023/10/29 00:22:14;;;;;;;16.58;9.38;;;10.70;99.90;;;;;;2043262;28;20063;-76
2023/10/29 00:23:15;;;;;;;12.20;8.57;;;10.70;99.90;;;;;;2047577;28;20125;-76
2023/10/29 00:24:15;;;;;;;12.82;8.82;;;10.70;99.90;;;;;;2055365;28;20094;-75
2023/10/29 00:25:16;;;;;;;13.73;8.70;;;10.70;99.90;;;;;;2050932;28;20033;-75
2023/10/29 00:26:17;;;;;;;14.65;9.43;;;10.70;99.90;;;;;;2043239;28;20039;-75
2023/10/29 00:27:23;;;;;;;14.25;8.93;;;10.80;99.90;;;;;;2055523;28;20042;-75
2023/10/29 00:28:25;;;;;;;13.50;9.50;;;10.80;99.90;;;;;;2058347;28;20566;-74
2023/10/29 00:29:26;;;;;;;19.48;11.25;;;10.80;99.90;;;;;;2047985;28;20094;-75
2023/10/29 00:30:26;;;;;;;18.05;11.50;;;10.80;99.90;;;;;;2048701;28;20129;-75
2023/10/29 00:31:27;;;;;;;16.42;10.75;;;10.80;99.90;;;;;;2038230;28;20040;-76
2023/10/29 00:32:27;;;;;;;15.32;9.80;;;10.80;99.90;;;;;;2047871;28;20094;-77
2023/10/29 00:33:28;;;;;;;18.90;10.10;;;10.80;99.90;;;;;;2054322;28;20700;-76
2023/10/29 00:34:28;;;;;;;16.90;10.60;;;10.80;99.90;;;;;;2050559;28;20094;-75
2023/10/29 00:35:29;;;;;;;17.58;10.70;;;10.80;99.90;;;;;;2058166;28;20061;-75
2023/10/29 00:36:29;;;;;;;15.07;10.20;;;10.80;99.90;;;;;;2050658;28;20058;-75
2023/10/29 00:37:30;;;;;;;15.50;10.27;;;10.80;99.90;;;;;;2052319;28;20050;-76
2023/10/29 00:38:30;;;;;;;15.25;9.80;;;10.80;99.90;;;;;;2056082;28;20026;-76
2023/10/29 00:39:31;;;;;;;14.63;9.57;;;10.80;99.90;;;;;;2048790;28;20045;-76
2023/10/29 00:40:38;;;;;;;13.95;8.27;;;10.80;99.90;;;;;;2047033;28;20043;-76
2023/10/29 00:41:38;;;;;;;15.43;8.25;;;10.80;99.90;;;;;;2053644;28;20077;-76
2023/10/29 00:42:39;;;;;;;12.68;8.23;;;10.80;99.90;;;;;;2062588;28;20092;-77
2023/10/29 00:43:43;;;;;;;11.10;7.80;;;10.80;99.90;;;;;;2061073;28;20535;-76
2023/10/29 00:44:43;;;;;;;12.35;8.38;;;10.80;99.90;;;;;;2063351;28;20033;-76
2023/10/29 00:45:50;;;;;;;12.90;8.70;;;10.80;99.90;;;;;;2050882;28;20030;-76
2023/10/29 00:46:50;;;;;;;13.10;8.35;;;10.90;99.90;;;;;;2043908;28;20576;-76
2023/10/29 00:47:51;;;;;;;11.93;7.78;;;10.90;99.90;;;;;;2050062;28;20033;-75
2023/10/29 00:48:52;;;;;;;12.02;7.63;;;10.80;99.90;;;;;;2057352;28;20027;-76
2023/10/29 00:49:53;;;;;;;12.15;7.55;;;10.90;99.90;;;;;;2062321;28;20105;-76
2023/10/29 00:50:54;;;;;;;12.63;7.80;;;10.90;99.90;;;;;;2058483;28;20027;-75
2023/10/29 00:51:54;;;;;;;13.70;7.70;;;10.90;99.90;;;;;;2059326;28;20516;-76
2023/10/29 00:52:55;;;;;;;12.93;7.90;;;10.90;99.90;;;;;;2062750;28;20030;-76
2023/10/29 00:53:56;;;;;;;10.52;7.25;;;10.90;99.90;;;;;;2062876;28;20026;-76
2023/10/29 00:54:57;;;;;;;12.40;7.50;;;11.00;99.90;;;;;;2055728;28;20019;-78
2023/10/29 00:55:58;;;;;;;11.57;6.40;;;11.00;99.90;;;;;;2051887;28;20023;-75
2023/10/29 00:56:59;;;;;;;8.85;5.80;;;11.00;99.90;;;;;;2058131;28;20625;-77
2023/10/29 00:58:00;;;;;;;8.43;5.18;;;11.00;99.90;;;;;;2059328;28;20026;-77
2023/10/29 00:59:01;;;;;;;9.57;5.22;;;11.00;99.90;;;;;;2057453;28;20712;-76
2023/10/29 01:00:04;;;;;;;8.77;5.40;;;11.00;99.90;;;;;;2059174;28;20125;-77
2023/10/29 01:01:04;;;;;;;9.38;5.00;;;11.00;99.90;;;;;;2058020;28;20054;-76
2023/10/29 01:02:05;;;;;;;8.65;4.78;;;11.00;99.90;;;;;;2048246;28;20661;-76
2023/10/29 01:03:05;;;;;;;6.97;4.80;;;11.10;99.90;;;;;;2045393;28;20042;-76
2023/10/29 01:04:06;;;;;;;14.15;5.20;;;11.10;99.90;;;;;;2061808;28;20101;-76
2023/10/29 01:05:07;;;;;;;8.60;4.50;;;11.20;99.90;;;;;;2061044;28;20807;-77
2023/10/29 01:06:09;;;;;;;9.00;4.78;;;11.20;99.90;;;;;;2060970;28;20523;-76
2023/10/29 01:07:10;;;;;;;7.20;4.80;;;11.20;99.90;;;;;;2060743;28;20058;-77
2023/10/29 01:08:11;;;;;;;7.43;4.95;;;11.20;99.90;;;;;;2063638;28;20029;-77
2023/10/29 01:09:12;;;;;;;8.13;4.50;;;11.20;99.90;;;;;;2057140;28;20106;-76
2023/10/29 01:10:13;;;;;;;8.10;4.60;;;11.10;99.90;;;;;;2059425;28;20064;-78
2023/10/29 01:11:14;;;;;;;11.07;5.07;;;11.20;99.90;;;;;;2056518;28;20630;-77
2023/10/29 01:12:18;;;;;;;6.43;4.45;;;11.10;99.90;;;;;;2058068;28;20065;-75
2023/10/29 01:13:19;;;;;;;6.22;4.38;;;11.10;99.90;;;;;;2056151;28;20027;-76
2023/10/29 01:14:20;;;;;;;9.05;4.43;;;11.10;99.90;;;;;;2053679;28;20026;-76
2023/10/29 01:15:20;;;;;;;11.68;4.90;;;11.10;99.90;;;;;;2059338;28;20137;-76
2023/10/29 01:16:21;;;;;;;9.07;4.95;;;11.10;99.90;;;;;;2051613;28;20054;-77
2023/10/29 01:17:23;;;;;;;8.35;4.60;;;11.10;99.90;;;;;;2056630;28;20282;-75
2023/10/29 01:18:24;;;;;;;8.10;4.30;;;11.10;99.90;;;;;;2046564;28;20528;-76
2023/10/29 01:19:24;;;;;;;11.05;4.60;;;11.10;99.90;;;;;;2054502;28;20042;-76
2023/10/29 01:20:25;;;;;;;7.65;4.20;;;11.10;99.90;;;;;;2047041;28;20039;-76
2023/10/29 01:21:27;;;;;;;7.88;4.43;;;11.10;99.90;;;;;;2035701;29;20043;-76
2023/10/29 01:22:27;;;;;;;8.85;4.38;;;11.10;99.90;;;;;;2054128;28;20620;-76
2023/10/29 01:23:29;;;;;;;8.75;4.57;;;11.10;99.90;;;;;;2051644;28;20034;-76
2023/10/29 01:24:30;;;;;;;7.25;4.30;;;11.10;99.90;;;;;;2046020;28;20042;-76
2023/10/29 01:25:31;;;;;;;8.60;4.03;;;11.10;99.90;;;;;;2039529;28;20027;-76
2023/10/29 01:26:33;;;;;;;5.55;4.03;;;11.10;99.90;;;;;;2041867;28;20046;-76
2023/10/29 01:27:34;;;;;;;7.30;4.07;;;11.20;99.90;;;;;;2058662;28;20018;-75
2023/10/29 01:28:34;;;;;;;9.48;4.32;;;11.20;99.90;;;;;;2055887;28;20104;-75
2023/10/29 01:29:35;;;;;;;10.20;4.10;;;11.20;99.90;;;;;;2059970;28;20022;-76
2023/10/29 01:30:36;;;;;;;10.25;4.20;;;11.20;99.90;;;;;;2050808;28;20125;-78
2023/10/29 01:31:38;;;;;;;7.75;4.10;;;11.20;99.90;;;;;;2046704;28;20041;-77
2023/10/29 01:32:38;;;;;;;6.65;3.80;;;11.20;99.90;;;;;;2044347;28;20034;-76
2023/10/29 01:33:39;;;;;;;9.30;4.40;;;11.20;99.90;;;;;;2054114;28;20038;-76
2023/10/29 01:34:39;;;;;;;8.63;4.10;;;11.30;99.90;;;;;;2062995;28;20120;-81
2023/10/29 01:35:40;;;;;;;8.52;4.10;;;11.30;99.90;;;;;;2061274;28;20027;-81
2023/10/29 01:36:40;;;;;;;10.57;4.25;;;11.30;99.90;;;;;;2061385;28;20029;-82
2023/10/29 01:37:41;;;;;;;5.88;3.92;;;11.30;99.90;;;;;;2050866;28;20047;-82
2023/10/29 01:38:42;;;;;;;9.38;3.90;;;11.30;99.90;;;;;;2049567;28;20606;-81
2023/10/29 01:39:43;;;;;;;7.72;4.10;;;11.30;99.90;;;;;;2058574;28;20575;-81
2023/10/29 01:40:43;;;;;;;7.70;4.10;;;11.40;99.90;;;;;;2062968;28;20044;-82
2023/10/29 01:41:44;;;;;;;7.82;4.45;;;11.30;99.90;;;;;;2057150;28;20401;-81
2023/10/29 01:42:46;;;;;;;7.88;4.13;;;11.30;99.90;;;;;;2063253;28;20160;-81
2023/10/29 01:43:46;;;;;;;8.55;3.97;;;11.30;99.90;;;;;;2058264;28;20130;-81
2023/10/29 01:44:47;;;;;;;8.35;4.20;;;11.30;99.90;;;;;;2059807;28;20513;-81
2023/10/29 01:45:49;;;;;;;8.52;4.22;;;11.30;99.90;;;;;;2055538;28;20070;-82
2023/10/29 01:46:50;;;;;;;7.43;3.95;;;11.30;99.90;;;;;;2046961;28;20060;-82
2023/10/29 01:47:50;;;;;;;7.10;3.97;;;11.40;99.90;;;;;;2051080;28;20023;-81
2023/10/29 01:48:51;;;;;;;12.20;4.15;;;11.40;99.90;;;;;;2059357;28;20033;-81
2023/10/29 01:49:51;;;;;;;9.25;3.95;;;11.40;99.90;;;;;;2053422;28;20393;-81
2023/10/29 01:50:52;;;;;;;6.95;4.03;;;11.40;99.90;;;;;;2046716;28;20033;-81
2023/10/29 01:51:53;;;;;;;6.82;4.00;;;11.40;99.90;;;;;;2032716;29;20039;-80
2023/10/29 01:52:54;;;;;;;8.23;3.95;;;11.30;99.90;;;;;;2043178;29;20039;-82
2023/10/29 01:53:54;;;;;;;8.88;3.83;;;11.40;99.90;;;;;;2046905;28;20038;-81
2023/10/29 01:54:55;;;;;;;8.43;4.00;;;11.40;99.90;;;;;;2052365;28;20598;-82
2023/10/29 01:55:56;;;;;;;6.07;3.92;;;11.40;99.90;;;;;;2039885;28;20074;-80
2023/10/29 01:56:56;;;;;;;7.85;3.88;;;11.40;99.90;;;;;;2035460;29;20035;-83
2023/10/29 01:57:57;;;;;;;8.32;4.35;;;11.40;99.90;;;;;;2043480;28;20027;-82
2023/10/29 01:58:58;;;;;;;8.48;4.05;;;11.40;99.90;;;;;;2053020;28;20615;-82
2023/10/29 01:59:59;;;;;;;8.43;4.18;;;11.40;99.90;;;;;;2057572;28;20026;-81
2023/10/29 02:00:59;;;;;;;8.55;4.20;;;11.40;99.90;;;;;;2054420;28;20011;-82
2023/10/29 02:02:01;;;;;;;8.63;4.28;;;11.40;99.90;;;;;;2052353;28;20029;-81
2023/10/29 02:03:02;;;;;;;8.20;4.00;;;11.40;99.90;;;;;;2065888;28;20111;-81
2023/10/29 02:04:02;;;;;;;9.32;4.63;;;11.40;99.90;;;;;;2053069;28;20110;-81
2023/10/29 02:05:04;;;;;;;7.28;4.03;;;11.40;99.90;;;;;;2052032;28;20042;-83
2023/10/29 02:06:13;;;;;;;7.45;4.15;;;11.40;99.90;;;;;;2052694;28;20033;-81
2023/10/29 02:07:14;;;;;;;6.28;4.13;;;11.50;99.90;;;;;;2054628;28;20171;-81
2023/10/29 02:08:14;;;;;;;6.88;4.00;;;11.50;99.90;;;;;;2042993;28;20035;-82
2023/10/29 02:09:15;;;;;;;7.35;4.32;;;11.40;99.90;;;;;;2050551;28;20038;-82
2023/10/29 02:10:16;;;;;;;9.32;4.38;;;11.40;99.90;;;;;;2050917;28;20034;-80
2023/10/29 02:11:17;;;;;;;9.10;3.88;;;11.50;99.90;;;;;;2045885;28;20152;-81
2023/10/29 02:12:18;;;;;;;8.38;4.05;;;11.50;99.90;;;;;;2054761;28;20060;-80
2023/10/29 02:13:18;;;;;;;7.78;3.72;;;11.50;99.90;;;;;;2057542;28;20034;-81
2023/10/29 02:14:19;;;;;;;6.45;3.58;;;11.50;99.90;;;;;;2047124;28;20110;-81
2023/10/29 02:15:20;;;;;;;7.78;3.60;;;11.50;99.90;;;;;;2049940;28;20031;-80
2023/10/29 02:16:20;;;;;;;8.23;3.75;;;11.50;99.90;;;;;;2053645;28;20137;-80
2023/10/29 02:17:24;;;;;;;8.38;3.90;;;11.50;99.90;;;;;;2059162;28;20106;-81
2023/10/29 02:18:25;;;;;;;9.68;4.05;;;11.50;99.90;;;;;;2055408;28;20019;-81
2023/10/29 02:19:25;;;;;;;7.57;3.72;;;11.50;99.90;;;;;;2049615;28;20096;-81
2023/10/29 02:20:26;;;;;;;11.55;4.13;;;11.50;99.90;;;;;;2050174;28;20162;-80
2023/10/29 02:21:27;;;;;;;8.98;4.13;;;11.50;99.90;;;;;;2055646;28;20026;-81
2023/10/29 02:22:30;;;;;;;5.45;3.65;;;11.50;99.90;;;;;;2062137;28;20482;-83
2023/10/29 02:23:30;;;;;;;6.35;3.75;;;11.50;99.90;;;;;;2057078;28;20034;-82
2023/10/29 02:24:31;;;;;;;7.45;4.05;;;11.50;99.90;;;;;;2059843;28;20460;-83
2023/10/29 02:25:32;;;;;;;8.32;3.85;;;11.50;99.90;;;;;;2059192;28;20030;-81
2023/10/29 02:26:33;;;;;;;13.80;3.85;;;11.60;99.90;;;;;;2061801;28;20133;-82
2023/10/29 02:27:34;;;;;;;6.32;3.50;;;11.60;99.90;;;;;;2062157;28;20033;-81
2023/10/29 02:28:34;;;;;;;6.05;3.42;;;11.60;99.90;;;;;;2052948;28;20117;-81
2023/10/29 02:29:36;;;;;;;9.20;3.67;;;11.70;99.90;;;;;;2054344;28;20680;-82
2023/10/29 02:30:36;;;;;;;7.22;3.30;;;11.60;99.90;;;;;;2056268;28;20037;-80
2023/10/29 02:31:37;;;;;;;5.88;3.50;;;11.70;99.90;;;;;;2057939;28;20125;-81
2023/10/29 02:32:38;;;;;;;8.32;3.70;;;11.70;99.90;;;;;;2061049;28;20030;-81
2023/10/29 02:33:38;;;;;;;8.60;3.58;;;11.70;99.90;;;;;;2054304;28;20045;-81
2023/10/29 02:34:39;;;;;;;6.68;3.55;;;11.70;99.90;;;;;;2046235;28;20063;-81
2023/10/29 02:35:39;;;;;;;5.05;3.50;;;11.70;99.90;;;;;;2053141;28;20039;-82
2023/10/29 02:36:41;;;;;;;7.05;3.65;;;11.70;99.90;;;;;;2058170;28;20061;-80
2023/10/29 02:37:41;;;;;;;8.68;3.60;;;11.70;99.90;;;;;;2058892;28;20042;-82
2023/10/29 02:38:45;;;;;;;11.30;5.00;;;11.70;99.90;;;;;;2058383;28;20114;-80
2023/10/29 02:39:47;;;;;;;10.05;4.88;;;11.70;99.90;;;;;;2061176;28;20113;-81
2023/10/29 02:40:48;;;;;;;11.70;4.78;;;11.70;99.90;;;;;;2055347;28;20029;-80
2023/10/29 02:41:49;;;;;;;7.35;4.00;;;11.70;99.90;;;;;;2053054;28;20026;-82
2023/10/29 02:42:49;;;;;;;9.48;4.82;;;11.70;99.90;;;;;;2052422;28;20053;-83
2023/10/29 02:43:50;;;;;;;12.60;5.28;;;11.70;99.90;;;;;;2055273;28;20030;-82
2023/10/29 02:44:52;;;;;;;11.07;5.70;;;11.70;99.90;;;;;;2060682;28;20568;-83
2023/10/29 02:45:53;;;;;;;13.52;6.68;;;11.70;99.90;;;;;;2053946;28;20027;-82
2023/10/29 02:46:53;;;;;;;13.02;5.30;;;11.70;99.90;;;;;;2050225;28;20130;-82
2023/10/29 02:47:54;;;;;;;10.02;5.20;;;11.70;99.90;;;;;;2061618;28;20041;-81
2023/10/29 02:48:54;;;;;;;8.95;4.70;;;11.70;99.90;;;;;;2058763;28;20033;-82
2023/10/29 02:49:55;;;;;;;9.48;4.15;;;11.80;99.90;;;;;;2059688;28;20504;-81
2023/10/29 02:50:56;;;;;;;6.85;4.10;;;11.80;99.90;;;;;;2058127;28;20042;-80
2023/10/29 02:51:57;;;;;;;8.95;4.40;;;11.80;99.90;;;;;;2058669;28;20026;-82
2023/10/29 02:52:57;;;;;;;7.78;4.00;;;11.80;99.90;;;;;;2050192;28;20035;-80
2023/10/29 02:53:58;;;;;;;7.93;4.38;;;11.80;99.90;;;;;;2043614;28;20054;-82
2023/10/29 02:54:59;;;;;;;12.27;5.55;;;11.80;99.90;;;;;;2040637;28;20038;-81
2023/10/29 02:56:00;;;;;;;10.27;5.00;;;11.80;99.90;;;;;;2046445;28;20030;-81
2023/10/29 02:57:02;;;;;;;11.77;5.47;;;11.80;99.90;;;;;;2056778;28;20085;-81
2023/10/29 02:58:03;;;;;;;13.45;6.43;;;11.80;99.90;;;;;;2052778;28;20029;-81
2023/10/29 02:59:03;;;;;;;11.32;5.20;;;11.80;99.90;;;;;;2039331;28;20039;-82
2023/10/29 03:00:05;;;;;;;9.70;4.40;;;11.80;99.90;;;;;;2050320;28;20117;-80
2023/10/29 03:01:08;;;;;;;9.95;4.93;;;11.80;99.90;;;;;;2061064;28;20037;-80
2023/10/29 03:02:09;;;;;;;9.38;5.22;;;11.80;99.90;;;;;;2062000;28;20037;-80
2023/10/29 03:03:09;;;;;;;11.55;5.60;;;11.70;99.90;;;;;;2056936;28;20105;-84
2023/10/29 03:04:10;;;;;;;9.32;5.00;;;11.70;99.90;;;;;;2046508;28;20024;-80
2023/10/29 03:05:11;;;;;;;10.20;4.80;;;11.70;99.90;;;;;;2050436;28;20061;-81
2023/10/29 03:06:13;;;;;;;9.25;4.30;;;11.70;99.90;;;;;;2050344;28;20031;-80
2023/10/29 03:07:14;;;;;;;10.45;5.00;;;11.70;99.90;;;;;;2050525;28;20023;-81
2023/10/29 03:08:14;;;;;;;9.85;4.65;;;11.70;99.90;;;;;;2046758;28;20035;-81
2023/10/29 03:09:15;;;;;;;10.13;4.82;;;11.70;99.90;;;;;;2047254;28;20046;-80
2023/10/29 03:10:16;;;;;;;9.45;4.38;;;11.70;99.90;;;;;;2057531;28;20053;-82
2023/10/29 03:11:17;;;;;;;12.88;6.20;;;11.70;99.90;;;;;;2051353;28;20553;-81
2023/10/29 03:12:17;;;;;;;11.05;5.65;;;11.70;99.90;;;;;;2049066;28;20510;-81
2023/10/29 03:13:18;;;;;;;9.23;5.18;;;11.70;99.90;;;;;;2060120;28;20091;-81
2023/10/29 03:14:18;;;;;;;9.88;5.35;;;11.70;99.90;;;;;;2053315;28;20515;-81
2023/10/29 03:15:19;;;;;;;10.50;4.55;;;11.70;99.90;;;;;;2045746;28;20039;-81
2023/10/29 03:16:20;;;;;;;9.73;5.20;;;11.70;99.90;;;;;;2052260;28;20127;-80
2023/10/29 03:17:21;;;;;;;12.30;5.03;;;11.70;99.90;;;;;;2038648;28;20046;-81
2023/10/29 03:18:21;;;;;;;12.52;4.65;;;11.60;99.90;;;;;;2043333;28;20070;-81
2023/10/29 03:19:22;;;;;;;8.15;4.28;;;11.60;99.90;;;;;;2053941;28;20031;-82
2023/10/29 03:20:23;;;;;;;7.63;4.05;;;11.70;99.90;;;;;;2050419;28;20026;-82
2023/10/29 03:21:23;;;;;;;9.75;4.40;;;11.70;99.90;;;;;;2051395;28;20025;-81
2023/10/29 03:22:24;;;;;;;9.40;4.22;;;11.60;99.90;;;;;;2054873;28;20114;-81
2023/10/29 03:23:24;;;;;;;9.90;4.47;;;11.60;99.90;;;;;;2060514;28;20078;-81
2023/10/29 03:24:25;;;;;;;8.20;4.28;;;11.60;99.90;;;;;;2058581;28;20030;-81
2023/10/29 03:25:26;;;;;;;9.32;4.30;;;11.60;99.90;;;;;;2047693;28;20019;-84
2023/10/29 03:26:27;;;;;;;9.25;5.03;;;11.60;99.90;;;;;;2040920;28;20457;-82
2023/10/29 03:27:27;;;;;;;10.35;5.45;;;11.60;99.90;;;;;;2034687;28;20051;-82
2023/10/29 03:28:29;;;;;;;11.27;5.00;;;11.70;99.90;;;;;;2036113;28;20030;-82
2023/10/29 03:29:30;;;;;;;8.18;4.57;;;11.70;99.90;;;;;;2063112;28;20032;-83
2023/10/29 03:30:31;;;;;;;10.02;4.80;;;11.70;99.90;;;;;;2062093;28;20022;-82
2023/10/29 03:31:31;;;;;;;9.23;4.43;;;11.70;99.90;;;;;;2055112;28;20030;-82
2023/10/29 03:32:32;;;;;;;12.77;4.57;;;11.70;99.90;;;;;;2055167;28;20037;-82
2023/10/29 03:33:33;;;;;;;10.40;4.65;;;11.70;99.90;;;;;;2062674;28;20037;-80
2023/10/29 03:34:34;;;;;;;8.13;3.70;;;11.70;99.90;;;;;;2051029;28;20030;-81
2023/10/29 03:35:34;;;;;;;7.60;4.10;;;11.70;99.90;;;;;;2046014;28;20035;-82
2023/10/29 03:36:35;;;;;;;10.63;4.63;;;11.70;99.90;;;;;;2049607;28;20023;-82
2023/10/29 03:37:36;;;;;;;8.75;4.40;;;11.70;99.90;;;;;;2057856;28;20031;-82
2023/10/29 03:38:36;;;;;;;8.80;4.00;;;11.80;99.90;;;;;;2053773;28;20134;-81
2023/10/29 03:39:37;;;;;;;8.60;3.70;;;11.80;99.90;;;;;;2048736;28;20567;-81
2023/10/29 03:40:37;;;;;;;7.10;3.90;;;11.80;99.90;;;;;;2050511;28;20023;-81
2023/10/29 03:41:38;;;;;;;10.65;4.00;;;11.90;99.90;;;;;;2054711;28;20105;-81
2023/10/29 03:42:38;;;;;;;7.18;3.90;;;11.90;99.90;;;;;;2054858;28;20037;-81
2023/10/29 03:43:40;;;;;;;7.05;3.45;;;11.90;99.90;;;;;;2057254;28;20588;-81
2023/10/29 03:44:41;;;;;;;7.65;3.42;;;11.80;99.90;;;;;;2060687;28;20117;-81
2023/10/29 03:45:41;;;;;;;8.85;3.70;;;11.80;99.90;;;;;;2051831;28;20035;-81
2023/10/29 03:46:42;;;;;;;8.30;3.95;;;11.90;99.90;;;;;;2052505;28;20019;-82
2023/10/29 03:47:42;;;;;;;8.40;3.50;;;11.90;99.90;;;;;;2056988;28;20027;-80
2023/10/29 03:48:45;;;;;;;9.32;3.97;;;11.90;99.90;;;;;;2063639;28;20080;-81
2023/10/29 03:49:46;;;;;;;8.85;4.15;;;11.90;99.90;;;;;;2056607;28;20023;-80
2023/10/29 03:50:46;;;;;;;6.72;4.07;;;11.90;99.90;;;;;;2060892;28;20036;-82
2023/10/29 03:51:47;;;;;;;7.70;3.40;;;11.90;99.90;;;;;;2052193;28;20127;-81
2023/10/29 03:52:48;;;;;;;7.45;3.53;;;11.90;99.90;;;;;;2051753;28;20022;-79
2023/10/29 03:53:50;;;;;;;7.50;3.40;;;11.80;99.90;;;;;;2056738;28;20038;-80
2023/10/29 03:54:51;;;;;;;9.65;3.60;;;11.90;99.90;;;;;;2061089;28;20397;-81
2023/10/29 03:55:53;;;;;;;7.07;3.50;;;11.90;99.90;;;;;;2065010;28;20101;-80
2023/10/29 03:56:53;;;;;;;4.65;3.20;;;11.90;99.90;;;;;;2062391;28;20802;-82
2023/10/29 03:57:54;;;;;;;7.50;3.10;;;11.90;99.90;;;;;;2061069;28;20030;-82
2023/10/29 03:58:55;;;;;;;8.95;3.60;;;11.90;99.90;;;;;;2064249;28;20390;-81
2023/10/29 03:59:55;;;;;;;10.15;3.53;;;11.90;99.90;;;;;;2063073;28;20991;-82
2023/10/29 04:00:56;;;;;;;6.38;3.30;;;11.90;99.90;;;;;;2059018;28;20037;-81
2023/10/29 04:01:57;;;;;;;8.30;3.40;;;11.90;99.90;;;;;;2058025;28;20070;-81
2023/10/29 04:02:57;;;;;;;6.82;3.38;;;11.90;99.90;;;;;;2054452;28;20052;-82
2023/10/29 04:03:58;;;;;;;7.03;3.13;;;11.90;99.90;;;;;;2054562;28;20065;-81
2023/10/29 04:04:59;;;;;;;6.97;3.20;;;11.90;99.90;;;;;;2052854;28;20045;-80
2023/10/29 04:06:00;;;;;;;6.78;3.55;;;11.90;99.90;;;;;;2056168;28;20798;-81
2023/10/29 04:07:01;;;;;;;6.20;3.53;;;11.90;99.90;;;;;;2059108;28;20076;-83
2023/10/29 04:08:01;;;;;;;7.35;3.80;;;11.90;99.90;;;;;;2056545;28;20061;-80
2023/10/29 04:09:02;;;;;;;8.23;3.75;;;11.90;99.90;;;;;;2055660;28;20053;-82
2023/10/29 04:10:03;;;;;;;6.60;3.10;;;11.90;99.90;;;;;;2055500;28;20750;-81
2023/10/29 04:11:04;;;;;;;9.52;3.40;;;12.00;99.90;;;;;;2059595;28;20065;-79
2023/10/29 04:12:05;;;;;;;10.27;4.75;;;12.00;99.90;;;;;;2055526;28;20038;-82
2023/10/29 04:13:06;;;;;;;9.27;4.53;;;12.00;99.90;;;;;;2052454;28;20043;-83
2023/10/29 04:14:06;;;;;;;8.07;3.70;;;12.00;99.90;;;;;;2052342;28;20061;-82
2023/10/29 04:15:08;;;;;;;6.93;3.80;;;12.00;99.90;;;;;;2057060;28;20027;-81
2023/10/29 04:16:09;;;;;;;11.95;7.70;;;12.00;99.90;;;;;;2061028;28;20053;-82
2023/10/29 04:17:09;;;;;;;13.43;7.53;;;12.00;99.90;;;;;;2059736;28;20610;-82
2023/10/29 04:18:10;;;;;;;13.32;6.20;;;12.00;99.90;;;;;;2060407;28;20503;-81
2023/10/29 04:19:11;;;;;;;20.67;11.02;;;12.00;99.90;;;;;;2062529;28;20657;-81
2023/10/29 04:20:11;;;;;;;12.77;6.95;;;12.00;99.90;;;;;;2063509;28;20029;-81
2023/10/29 04:21:12;;;;;;;8.18;3.53;;;11.90;99.90;;;;;;2060373;28;20109;-82
2023/10/29 04:22:13;;;;;;;8.93;4.00;;;11.90;99.90;;;;;;2054223;28;20065;-81
2023/10/29 04:23:13;;;;;;;9.82;4.20;;;11.90;99.90;;;;;;2055262;28;20034;-82
2023/10/29 04:24:14;;;;;;;8.93;4.47;;;11.90;99.90;;;;;;2056339;28;20018;-83
2023/10/29 04:25:15;;;;;;;7.38;4.15;;;11.90;99.90;;;;;;2057108;28;20030;-82
2023/10/29 04:26:15;;;;;;;12.38;7.30;;;11.90;99.90;;;;;;2063294;28;20038;-81
2023/10/29 04:27:16;;;;;;;9.18;5.53;;;11.90;99.90;;;;;;2062297;28;20221;-82
2023/10/29 04:28:17;;;;;;;16.65;12.90;;;11.90;99.90;;;;;;2063762;28;20034;-81
2023/10/29 04:29:18;;;;;;;10.80;5.60;;;11.90;99.90;;;;;;2061640;28;20038;-81
2023/10/29 04:30:18;;;;;;;6.65;4.10;;;11.90;99.90;;;;;;2058396;28;20465;-80
2023/10/29 04:31:19;;;;;;;9.05;3.80;;;11.90;99.90;;;;;;2056705;28;20034;-82
2023/10/29 04:32:19;;;;;;;7.55;3.90;;;11.90;99.90;;;;;;2059379;28;20041;-80
2023/10/29 04:33:20;;;;;;;5.20;3.15;;;11.90;99.90;;;;;;2061539;28;20121;-80
2023/10/29 04:34:21;;;;;;;9.13;3.33;;;11.90;99.90;;;;;;2054952;28;20027;-80
2023/10/29 04:35:22;;;;;;;7.55;3.45;;;11.90;99.90;;;;;;2053214;28;20078;-80
2023/10/29 04:36:24;;;;;;;5.35;2.97;;;11.90;99.90;;;;;;2063146;28;20065;-81
2023/10/29 04:37:24;;;;;;;7.68;3.33;;;12.00;99.90;;;;;;2061314;28;20061;-81
2023/10/29 04:38:25;;;;;;;6.85;3.20;;;12.00;99.90;;;;;;2055020;28;20030;-80
2023/10/29 04:39:26;;;;;;;6.03;2.92;;;12.00;99.90;;;;;;2062400;28;20412;-81
2023/10/29 04:40:26;;;;;;;8.10;3.20;;;12.00;99.90;;;;;;2061820;28;20088;-81
2023/10/29 04:41:27;;;;;;;6.80;3.20;;;12.00;99.90;;;;;;2057331;28;20022;-81
2023/10/29 04:42:27;;;;;;;6.70;3.17;;;12.00;99.90;;;;;;2061827;28;20141;-81
2023/10/29 04:43:28;;;;;;;7.38;3.33;;;12.00;99.90;;;;;;2059261;28;20038;-81
2023/10/29 04:44:29;;;;;;;6.75;3.00;;;12.00;99.90;;;;;;2059334;28;20071;-81
2023/10/29 04:45:29;;;;;;;6.55;3.05;;;12.00;99.90;;;;;;2052758;28;20110;-80
2023/10/29 04:46:30;;;;;;;5.72;3.08;;;12.00;99.90;;;;;;2062305;28;20022;-82
2023/10/29 04:47:30;;;;;;;4.60;2.95;;;12.00;99.90;;;;;;2044878;28;20031;-84
2023/10/29 04:48:31;;;;;;;7.45;3.25;;;12.00;99.90;;;;;;2054465;28;20069;-81
2023/10/29 04:49:31;;;;;;;5.45;2.95;;;12.00;99.90;;;;;;2043764;28;20528;-82
2023/10/29 04:50:32;;;;;;;6.97;3.00;;;12.00;99.90;;;;;;2046866;28;20113;-82
2023/10/29 04:51:33;;;;;;;6.70;3.33;;;12.00;99.90;;;;;;2063673;28;20030;-81
2023/10/29 04:52:33;;;;;;;9.15;3.78;;;12.10;99.90;;;;;;2049917;28;20046;-82
2023/10/29 04:53:34;;;;;;;7.55;3.45;;;12.10;99.90;;;;;;2047347;28;20071;-82
2023/10/29 04:54:36;;;;;;;6.85;3.60;;;12.10;99.90;;;;;;2059992;28;20109;-81
2023/10/29 04:55:37;;;;;;;7.55;3.35;;;12.10;99.90;;;;;;2055795;28;20044;-79
2023/10/29 04:56:37;;;;;;;6.55;3.50;;;12.10;99.90;;;;;;2047204;28;20027;-79
2023/10/29 04:57:38;;;;;;;8.85;3.50;;;12.10;99.90;;;;;;2047367;28;20078;-81
2023/10/29 04:58:39;;;;;;;6.60;3.33;;;12.10;99.90;;;;;;2059208;28;20035;-80
2023/10/29 04:59:39;;;;;;;8.65;3.42;;;12.10;99.90;;;;;;2063987;28;20053;-82
2023/10/29 05:00:40;;;;;;;8.82;3.22;;;12.20;99.90;;;;;;2059777;28;20404;-81
2023/10/29 05:01:41;;;;;;;9.77;3.60;;;12.20;99.90;;;;;;2059883;28;20035;-81
2023/10/29 05:02:41;;;;;;;6.97;3.15;;;12.20;99.90;;;;;;2063052;28;20030;-81
2023/10/29 05:03:42;;;;;;;6.13;3.28;;;12.20;99.90;;;;;;2056650;28;20028;-81
2023/10/29 05:04:42;;;;;;;5.78;2.97;;;12.20;99.90;;;;;;2058828;28;20482;-80
2023/10/29 05:05:43;;;;;;;5.88;2.90;;;12.20;99.90;;;;;;2059264;28;20034;-81
2023/10/29 05:06:44;;;;;;;5.03;3.08;;;12.20;99.90;;;;;;2058991;28;20022;-82
2023/10/29 05:07:45;;;;;;;6.15;3.20;;;12.20;99.90;;;;;;2059260;28;20182;-81
2023/10/29 05:08:46;;;;;;;5.82;2.70;;;12.20;99.90;;;;;;2051280;28;20130;-82
2023/10/29 05:09:47;;;;;;;5.70;2.75;;;12.20;99.90;;;;;;2052407;28;20072;-81
2023/10/29 05:10:47;;;;;;;5.97;2.88;;;12.20;99.90;;;;;;2061994;28;20034;-81
2023/10/29 05:11:48;;;;;;;8.20;2.88;;;12.20;99.90;;;;;;2059835;28;20026;-81
2023/10/29 05:12:49;;;;;;;6.93;2.85;;;12.20;99.90;;;;;;2049450;28;20026;-82
2023/10/29 05:13:49;;;;;;;6.07;2.88;;;12.20;99.90;;;;;;2043394;28;20577;-82
2023/10/29 05:14:53;;;;;;;7.93;2.85;;;12.20;99.90;;;;;;2059475;28;20505;-81
2023/10/29 05:15:54;;;;;;;6.45;2.80;;;12.20;99.90;;;;;;2055726;28;20033;-82